createdAt,value
2019-04-04T00:01:12.552Z,96.20
2019-04-04T00:04:08.214Z,96.30
2019-04-04T00:07:03.867Z,96.40
2019-04-04T00:09:59.818Z,96.80
2019-04-04T00:12:58.160Z,97.00
2019-04-04T00:15:55.343Z,97.60
2019-04-04T00:18:51.371Z,98.20
2019-04-04T00:21:48.292Z,98.60
2019-04-04T00:24:44.896Z,99.60
2019-04-04T00:27:43.676Z,99.90
2019-04-04T00:30:38.667Z,99.90
2019-04-04T00:33:35.267Z,99.90
2019-04-04T00:36:33.878Z,99.90
2019-04-04T00:39:29.338Z,99.90
2019-04-04T00:42:26.112Z,99.90
2019-04-04T00:45:22.752Z,99.90
2019-04-04T00:48:19.730Z,99.90
2019-04-04T00:51:16.807Z,99.90
2019-04-04T00:54:14.022Z,99.90
2019-04-04T00:57:11.525Z,99.90
2019-04-04T01:00:09.573Z,99.90
2019-04-04T01:03:05.991Z,99.90
2019-04-04T01:06:03.483Z,99.90
2019-04-04T01:09:01.157Z,99.90
2019-04-04T01:11:58.578Z,99.90
2019-04-04T01:14:58.133Z,99.90
2019-04-04T01:17:54.221Z,99.90
2019-04-04T01:20:51.319Z,99.90
2019-04-04T01:23:47.377Z,99.90
2019-04-04T01:26:44.658Z,99.90
2019-04-04T01:29:41.542Z,99.90
2019-04-04T01:32:38.613Z,99.90
2019-04-04T01:35:35.178Z,99.90
2019-04-04T01:38:32.946Z,99.90
2019-04-04T01:41:30.019Z,99.90
2019-04-04T01:44:25.894Z,99.90
2019-04-04T01:47:22.853Z,99.90
2019-04-04T01:50:22.539Z,99.90
2019-04-04T01:53:17.111Z,99.90
2019-04-04T01:56:13.999Z,99.90
2019-04-04T01:59:10.250Z,99.90
2019-04-04T02:02:09.068Z,99.90
2019-04-04T02:05:06.792Z,99.90
2019-04-04T02:08:03.887Z,99.90
2019-04-04T02:11:01.857Z,99.90
2019-04-04T02:13:58.559Z,99.90
2019-04-04T02:16:55.999Z,99.90
2019-04-04T02:19:52.114Z,99.90
2019-04-04T02:22:49.719Z,99.90
2019-04-04T02:25:45.995Z,99.90
2019-04-04T02:28:42.713Z,99.90
2019-04-04T02:31:43.354Z,99.90
2019-04-04T02:34:40.357Z,99.90
2019-04-04T02:37:37.312Z,99.90
2019-04-04T02:40:34.329Z,99.90
2019-04-04T02:43:30.595Z,99.90
2019-04-04T02:46:27.860Z,99.90
2019-04-04T02:49:27.938Z,99.90
2019-04-04T02:52:23.359Z,99.90
2019-04-04T02:55:20.373Z,99.90
2019-04-04T02:58:17.261Z,99.90
2019-04-04T03:01:13.409Z,99.90
2019-04-04T03:04:13.572Z,99.90
2019-04-04T03:07:08.906Z,99.90
2019-04-04T03:10:06.974Z,99.90
2019-04-04T03:13:03.703Z,99.90
2019-04-04T03:16:01.111Z,99.90
2019-04-04T03:18:57.047Z,99.90
2019-04-04T03:21:55.933Z,99.90
2019-04-04T03:24:55.749Z,99.90
2019-04-04T03:27:52.682Z,99.90
2019-04-04T03:31:00.914Z,99.90
2019-04-04T03:33:46.448Z,99.90
2019-04-04T03:36:42.912Z,99.90
2019-04-04T03:39:40.493Z,99.90
2019-04-04T03:42:36.957Z,99.90
2019-04-04T03:45:34.801Z,99.90
2019-04-04T03:48:30.757Z,99.90
2019-04-04T03:51:28.408Z,99.90
2019-04-04T03:54:26.719Z,99.90
2019-04-04T03:57:22.755Z,99.90
2019-04-04T04:00:29.218Z,99.90
2019-04-04T04:03:25.428Z,99.90
2019-04-04T04:06:21.612Z,99.90
2019-04-04T04:09:18.547Z,99.90
2019-04-04T04:12:15.089Z,99.90
2019-04-04T04:15:12.681Z,99.90
2019-04-04T04:18:08.675Z,99.90
2019-04-04T04:21:09.738Z,99.90
2019-04-04T04:24:02.262Z,99.90
2019-04-04T04:26:58.729Z,99.90
2019-04-04T04:29:55.432Z,99.90
2019-04-04T04:32:55.817Z,99.90
2019-04-04T04:35:49.340Z,99.90
2019-04-04T04:38:45.025Z,99.90
2019-04-04T04:41:42.142Z,99.90
2019-04-04T04:44:39.072Z,99.90
2019-04-04T04:47:35.915Z,99.90
2019-04-04T04:50:31.821Z,99.90
2019-04-04T04:53:29.861Z,99.90
2019-04-04T04:56:26.621Z,99.90
2019-04-04T04:59:23.434Z,99.90
2019-04-04T05:02:25.287Z,99.90
2019-04-04T05:05:22.438Z,99.90
2019-04-04T05:08:18.466Z,99.90
2019-04-04T05:11:14.816Z,99.90
2019-04-04T05:14:13.939Z,99.90
2019-04-04T05:17:10.731Z,99.90
2019-04-04T05:20:09.551Z,99.90
2019-04-04T05:23:06.967Z,99.90
2019-04-04T05:26:03.356Z,99.90
2019-04-04T05:28:59.272Z,99.90
2019-04-04T05:31:56.162Z,99.90
2019-04-04T05:34:52.856Z,99.90
2019-04-04T05:37:48.776Z,99.90
2019-04-04T05:40:45.253Z,99.90
2019-04-04T05:43:41.010Z,99.90
2019-04-04T05:46:36.491Z,99.90
2019-04-04T05:49:33.250Z,99.90
2019-04-04T05:52:30.461Z,99.90
2019-04-04T05:55:27.271Z,99.90
2019-04-04T05:58:26.833Z,99.90
2019-04-04T06:01:23.441Z,99.90
2019-04-04T06:04:19.623Z,99.90
2019-04-04T06:07:16.899Z,99.90
2019-04-04T06:10:13.086Z,99.90
2019-04-04T06:13:09.923Z,99.90
2019-04-04T06:16:06.282Z,99.90
2019-04-04T06:19:03.657Z,99.90
2019-04-04T06:22:02.580Z,99.90
2019-04-04T06:25:00.225Z,99.90
2019-04-04T06:27:56.327Z,99.90
2019-04-04T06:30:54.320Z,99.90
2019-04-04T06:33:50.132Z,99.90
2019-04-04T06:36:48.941Z,99.90
2019-04-04T06:39:44.776Z,99.90
2019-04-04T06:42:41.937Z,99.90
2019-04-04T06:45:38.610Z,99.90
2019-04-04T06:48:36.710Z,99.90
2019-04-04T06:51:32.882Z,99.90
2019-04-04T06:54:29.344Z,99.90
2019-04-04T06:57:25.110Z,99.90
2019-04-04T07:00:21.720Z,99.90
2019-04-04T07:03:17.179Z,99.90
2019-04-04T07:06:13.864Z,99.90
2019-04-04T07:09:09.554Z,99.90
2019-04-04T07:12:06.755Z,99.90
2019-04-04T07:15:03.337Z,99.90
2019-04-04T07:17:59.852Z,99.90
2019-04-04T07:20:55.887Z,99.90
2019-04-04T07:23:51.468Z,99.90
2019-04-04T07:26:48.344Z,99.90
2019-04-04T07:29:44.915Z,98.70
2019-04-04T07:32:41.770Z,96.80
2019-04-04T07:35:39.373Z,95.90
2019-04-04T07:38:36.173Z,94.70
2019-04-04T07:41:33.792Z,93.30
2019-04-04T07:44:29.504Z,92.50
2019-04-04T07:47:26.167Z,91.00
2019-04-04T07:50:24.172Z,88.40
2019-04-04T07:53:21.908Z,86.90
2019-04-04T07:56:19.591Z,86.20
2019-04-04T07:59:15.598Z,83.60
2019-04-04T08:02:12.350Z,83.50
2019-04-04T08:05:07.936Z,82.30
2019-04-04T08:08:03.328Z,79.30
2019-04-04T08:10:59.094Z,77.00
2019-04-04T08:13:54.723Z,76.30
2019-04-04T08:16:50.435Z,74.20
2019-04-04T08:19:58.867Z,73.80
2019-04-04T08:22:43.888Z,71.10
2019-04-04T08:25:44.147Z,71.60
2019-04-04T08:28:39.873Z,68.10
2019-04-04T08:31:35.448Z,64.90
2019-04-04T08:34:31.991Z,61.00
2019-04-04T08:37:28.189Z,61.00
2019-04-04T08:40:23.975Z,59.70
2019-04-04T08:43:20.726Z,58.60
2019-04-04T08:46:19.726Z,57.50
2019-04-04T08:49:13.934Z,57.00
2019-04-04T08:52:16.815Z,56.60
2019-04-04T08:55:10.246Z,55.10
2019-04-04T08:58:07.091Z,55.40
2019-04-04T09:01:03.732Z,57.80
2019-04-04T09:04:00.078Z,56.60
2019-04-04T09:06:55.960Z,56.50
2019-04-04T09:09:51.694Z,54.60
2019-04-04T09:12:47.915Z,54.00
2019-04-04T09:15:44.008Z,52.50
2019-04-04T09:18:42.124Z,51.20
2019-04-04T09:21:38.286Z,49.90
2019-04-04T09:24:34.684Z,50.30
2019-04-04T09:27:31.149Z,51.40
2019-04-04T09:30:27.740Z,50.90
2019-04-04T09:33:24.156Z,51.30
2019-04-04T09:36:19.642Z,51.40
2019-04-04T09:39:14.868Z,49.70
2019-04-04T09:42:10.612Z,50.00
2019-04-04T09:45:06.820Z,49.30
2019-04-04T09:48:05.733Z,50.30
2019-04-04T09:51:01.640Z,50.70
2019-04-04T09:53:56.886Z,50.00
2019-04-04T09:56:52.905Z,49.20
2019-04-04T09:59:50.169Z,48.50
2019-04-04T10:02:45.766Z,48.20
2019-04-04T10:05:42.207Z,46.40
2019-04-04T10:08:38.914Z,47.90
2019-04-04T10:11:35.916Z,48.30
2019-04-04T10:14:32.510Z,46.90
2019-04-04T10:17:29.931Z,46.10
2019-04-04T10:20:25.691Z,46.20
2019-04-04T10:23:22.522Z,45.60
2019-04-04T10:26:17.828Z,46.80
2019-04-04T10:29:15.567Z,46.40
2019-04-04T10:32:11.605Z,45.30
2019-04-04T10:35:10.054Z,45.00
2019-04-04T10:38:09.656Z,45.30
2019-04-04T10:41:07.640Z,44.70
2019-04-04T10:44:03.465Z,44.90
2019-04-04T10:47:01.628Z,46.50
2019-04-04T10:49:58.596Z,47.00
2019-04-04T10:52:54.290Z,46.40
2019-04-04T10:55:49.598Z,44.70
2019-04-04T10:58:47.922Z,44.20
2019-04-04T11:01:43.597Z,44.30
2019-04-04T11:04:43.378Z,44.60
2019-04-04T11:07:38.824Z,44.20
2019-04-04T11:10:35.389Z,45.30
2019-04-04T11:13:34.040Z,42.90
2019-04-04T11:16:31.101Z,43.70
2019-04-04T11:19:31.291Z,44.00
2019-04-04T11:22:24.018Z,44.00
2019-04-04T11:25:20.607Z,44.20
2019-04-04T11:28:15.864Z,44.20
2019-04-04T11:31:12.504Z,44.60
2019-04-04T11:34:09.044Z,44.00
2019-04-04T11:37:05.035Z,43.40
2019-04-04T11:40:01.643Z,44.40
2019-04-04T11:42:57.336Z,43.40
2019-04-04T11:45:54.000Z,42.40
2019-04-04T11:48:51.624Z,41.10
2019-04-04T11:51:48.009Z,41.70
2019-04-04T11:55:03.708Z,41.40
2019-04-04T11:57:59.041Z,42.10
2019-04-04T12:00:58.425Z,40.90
2019-04-04T12:03:54.944Z,40.40
2019-04-04T12:06:53.970Z,39.80
2019-04-04T12:10:06.496Z,41.30
2019-04-04T12:12:52.476Z,41.20
2019-04-04T12:15:48.392Z,41.30
2019-04-04T12:18:46.059Z,41.80
2019-04-04T12:21:42.519Z,41.80
2019-04-04T12:24:41.476Z,42.20
2019-04-04T12:27:37.534Z,42.80
2019-04-04T12:30:33.861Z,43.10
2019-04-04T12:33:31.574Z,43.20
2019-04-04T12:36:29.544Z,43.60
2019-04-04T12:39:25.782Z,43.00
2019-04-04T12:42:21.734Z,43.60
2019-04-04T12:45:17.713Z,42.10
2019-04-04T12:48:15.051Z,42.50
2019-04-04T12:51:11.778Z,43.10
2019-04-04T12:54:10.892Z,43.00
2019-04-04T12:57:07.503Z,42.90
2019-04-04T13:00:05.701Z,42.70
2019-04-04T13:03:02.849Z,42.40
2019-04-04T13:06:03.025Z,42.50
2019-04-04T13:08:59.085Z,42.20
2019-04-04T13:11:55.541Z,41.10
2019-04-04T13:15:00.229Z,41.10
2019-04-04T13:17:56.717Z,41.90
2019-04-04T13:20:53.376Z,43.30
2019-04-04T13:23:48.746Z,43.40
2019-04-04T13:26:44.839Z,43.30
2019-04-04T13:29:46.185Z,43.50
2019-04-04T13:32:43.383Z,44.70
2019-04-04T13:35:41.873Z,43.70
2019-04-04T13:38:40.422Z,44.90
2019-04-04T13:41:37.264Z,45.60
2019-04-04T13:44:35.229Z,43.80
2019-04-04T13:47:30.935Z,44.30
2019-04-04T13:50:26.859Z,43.90
2019-04-04T13:53:25.204Z,43.40
2019-04-04T13:56:20.178Z,43.10
2019-04-04T13:59:16.477Z,42.70
2019-04-04T14:02:13.190Z,43.20
2019-04-04T14:05:13.759Z,44.00
2019-04-04T14:08:07.172Z,44.80
2019-04-04T14:11:03.566Z,44.90
2019-04-04T14:13:59.952Z,43.30
2019-04-04T14:16:56.192Z,44.30
2019-04-04T14:19:51.351Z,44.00
2019-04-04T14:22:47.679Z,45.10
2019-04-04T14:25:44.171Z,45.50
2019-04-04T14:28:41.768Z,45.20
2019-04-04T14:31:37.080Z,44.70
2019-04-04T14:34:33.417Z,44.70
2019-04-04T14:37:32.220Z,44.80
2019-04-04T14:40:28.644Z,44.30
2019-04-04T14:43:25.256Z,44.40
2019-04-04T14:46:21.120Z,45.50
2019-04-04T14:49:16.272Z,46.00
2019-04-04T14:52:11.870Z,47.00
2019-04-04T14:55:08.701Z,47.90
2019-04-04T14:58:04.504Z,48.50
2019-04-04T15:01:00.940Z,50.40
2019-04-04T15:03:58.451Z,49.80
2019-04-04T15:06:54.988Z,49.30
2019-04-04T15:09:51.338Z,48.60
2019-04-04T15:12:47.542Z,48.40
2019-04-04T15:16:13.287Z,48.80
2019-04-04T15:19:10.508Z,49.30
2019-04-04T15:22:06.650Z,48.10
2019-04-04T15:25:02.397Z,47.90
2019-04-04T15:27:58.906Z,47.30
2019-04-04T15:30:54.625Z,46.80
2019-04-04T15:33:52.571Z,46.40
2019-04-04T15:36:50.417Z,46.70
2019-04-04T15:39:47.330Z,46.30
2019-04-04T15:42:45.679Z,46.80
2019-04-04T15:45:42.283Z,48.10
2019-04-04T15:48:38.479Z,49.60
2019-04-04T15:51:33.941Z,51.50
2019-04-04T15:54:31.893Z,52.50
2019-04-04T15:57:28.125Z,53.20
2019-04-04T16:00:26.583Z,53.30
2019-04-04T16:03:22.218Z,53.50
2019-04-04T16:06:17.548Z,53.90
2019-04-04T16:09:13.181Z,54.40
2019-04-04T16:12:09.809Z,54.20
2019-04-04T16:15:05.903Z,54.30
2019-04-04T16:18:02.645Z,54.40
2019-04-04T16:20:58.399Z,55.00
2019-04-04T16:23:55.042Z,55.00
2019-04-04T16:26:51.578Z,55.00
2019-04-04T16:29:48.528Z,55.30
2019-04-04T16:32:44.000Z,55.40
2019-04-04T16:35:40.364Z,56.10
2019-04-04T16:38:36.756Z,56.50
2019-04-04T16:41:32.517Z,56.70
2019-04-04T16:44:28.392Z,57.40
2019-04-04T16:47:24.173Z,57.80
2019-04-04T16:50:21.495Z,58.10
2019-04-04T16:53:17.330Z,58.50
2019-04-04T16:56:13.260Z,59.00
2019-04-04T16:59:09.315Z,59.50
2019-04-04T17:02:05.192Z,59.70
2019-04-04T17:05:04.394Z,60.10
2019-04-04T17:08:01.281Z,60.30
2019-04-04T17:10:56.948Z,60.50
2019-04-04T17:13:53.323Z,61.10
2019-04-04T17:16:49.886Z,61.20
2019-04-04T17:19:46.728Z,61.50
2019-04-04T17:22:43.208Z,61.50
2019-04-04T17:25:39.575Z,62.00
2019-04-04T17:28:35.825Z,62.00
2019-04-04T17:31:31.750Z,61.90
2019-04-04T17:34:28.480Z,62.20
2019-04-04T17:37:25.241Z,62.40
2019-04-04T17:40:23.141Z,62.30
2019-04-04T17:43:19.927Z,62.40
2019-04-04T17:46:15.965Z,62.40
2019-04-04T17:49:12.844Z,62.70
2019-04-04T17:52:09.108Z,63.10
2019-04-04T17:55:06.659Z,62.90
2019-04-04T17:58:04.595Z,63.00
2019-04-04T18:01:01.439Z,63.40
2019-04-04T18:04:00.013Z,63.50
2019-04-04T18:06:59.635Z,63.10
2019-04-04T18:09:56.239Z,63.20
2019-04-04T18:12:52.142Z,63.50
2019-04-04T18:15:47.607Z,63.80
2019-04-04T18:18:43.255Z,64.00
2019-04-04T18:21:39.454Z,64.30
2019-04-04T18:24:35.941Z,64.50
2019-04-04T18:27:31.588Z,65.10
2019-04-04T18:30:27.862Z,65.00
2019-04-04T18:33:24.218Z,65.20
2019-04-04T18:36:23.198Z,65.50
2019-04-04T18:39:19.534Z,65.90
2019-04-04T18:42:16.364Z,66.30
2019-04-04T18:45:15.363Z,66.50
2019-04-04T18:48:11.001Z,66.80
2019-04-04T18:51:07.626Z,67.10
2019-04-04T18:54:02.854Z,67.50
2019-04-04T18:56:58.429Z,67.90
2019-04-04T18:59:54.811Z,68.40
2019-04-04T19:02:51.251Z,68.80
2019-04-04T19:05:47.638Z,69.30
2019-04-04T19:08:45.838Z,70.60
2019-04-04T19:11:43.930Z,70.40
2019-04-04T19:14:40.863Z,70.80
2019-04-04T19:17:36.669Z,71.00
2019-04-04T19:20:33.599Z,71.20
2019-04-04T19:23:30.040Z,71.30
2019-04-04T19:26:26.823Z,71.90
2019-04-04T19:29:23.336Z,72.60
2019-04-04T19:32:23.115Z,72.80
2019-04-04T19:35:19.752Z,73.10
2019-04-04T19:38:16.751Z,73.30
2019-04-04T19:41:13.282Z,73.70
2019-04-04T19:44:08.744Z,74.20
2019-04-04T19:47:06.075Z,74.80
2019-04-04T19:50:06.187Z,75.20
2019-04-04T19:53:03.045Z,76.00
2019-04-04T19:55:59.585Z,76.70
2019-04-04T19:58:55.957Z,77.10
2019-04-04T20:01:53.443Z,77.70
2019-04-04T20:04:49.740Z,78.20
2019-04-04T20:07:46.060Z,78.70
2019-04-04T20:10:42.232Z,79.10
2019-04-04T20:13:40.145Z,79.80
2019-04-04T20:16:36.045Z,80.20
2019-04-04T20:19:32.811Z,81.50
2019-04-04T20:22:29.439Z,82.80
2019-04-04T20:25:25.119Z,85.50
2019-04-04T20:28:22.664Z,87.80
2019-04-04T20:31:19.347Z,89.00
2019-04-04T20:34:15.972Z,89.70
2019-04-04T20:37:12.091Z,90.30
2019-04-04T20:40:08.765Z,90.90
2019-04-04T20:43:05.860Z,91.20
2019-04-04T20:46:02.924Z,91.50
2019-04-04T20:48:59.425Z,91.80
2019-04-04T20:51:57.112Z,92.20
2019-04-04T20:54:53.570Z,92.50
2019-04-04T20:57:49.495Z,93.00
2019-04-04T21:00:46.169Z,93.60
2019-04-04T21:03:42.754Z,94.20
2019-04-04T21:06:38.504Z,94.70
2019-04-04T21:09:35.646Z,95.30
2019-04-04T21:12:32.582Z,97.00
2019-04-04T21:15:29.348Z,97.20
2019-04-04T21:18:26.170Z,98.70
2019-04-04T21:21:22.847Z,99.90
2019-04-04T21:24:18.297Z,99.90
2019-04-04T21:27:14.984Z,99.90
2019-04-04T21:30:11.708Z,99.90
2019-04-04T21:33:07.698Z,99.90
2019-04-04T21:36:04.202Z,99.90
2019-04-04T21:39:00.443Z,99.90
2019-04-04T21:41:57.782Z,99.90
2019-04-04T21:44:54.460Z,99.90
2019-04-04T21:47:50.602Z,99.90
2019-04-04T21:50:47.432Z,99.90
2019-04-04T21:53:44.167Z,99.90
2019-04-04T21:56:40.936Z,99.90
2019-04-04T21:59:37.551Z,99.90
2019-04-04T22:02:34.071Z,99.90
2019-04-04T22:05:31.019Z,99.90
2019-04-04T22:08:27.430Z,99.90
2019-04-04T22:11:24.114Z,99.90
2019-04-04T22:14:22.300Z,99.90
2019-04-04T22:17:21.783Z,99.90
2019-04-04T22:20:17.949Z,99.90
2019-04-04T22:23:13.961Z,99.90
2019-04-04T22:26:11.615Z,99.90
2019-04-04T22:29:08.840Z,99.90
2019-04-04T22:32:05.692Z,99.90
2019-04-04T22:35:01.953Z,99.90
2019-04-04T22:37:58.664Z,99.90
2019-04-04T22:40:54.741Z,99.90
2019-04-04T22:44:02.661Z,99.90
2019-04-04T22:46:48.160Z,99.90
2019-04-04T22:49:44.916Z,99.90
2019-04-04T22:52:41.631Z,99.90
2019-04-04T22:55:38.671Z,99.90
2019-04-04T22:58:35.157Z,99.90
2019-04-04T23:01:32.113Z,99.90
2019-04-04T23:04:28.645Z,99.90
2019-04-04T23:07:24.576Z,99.90
2019-04-04T23:10:21.245Z,99.90
2019-04-04T23:13:19.232Z,99.90
2019-04-04T23:16:16.211Z,99.90
2019-04-04T23:19:12.709Z,99.90
2019-04-04T23:22:10.799Z,99.90
2019-04-04T23:25:08.561Z,99.90
2019-04-04T23:28:05.168Z,99.90
2019-04-04T23:31:01.899Z,99.90
2019-04-04T23:33:58.506Z,99.90
2019-04-04T23:36:54.277Z,99.90
2019-04-04T23:39:51.086Z,99.90
2019-04-04T23:42:47.058Z,99.90
2019-04-04T23:45:45.517Z,99.90
2019-04-04T23:48:42.339Z,99.90
2019-04-04T23:51:38.315Z,99.90
2019-04-04T23:54:34.826Z,99.90
2019-04-04T23:57:31.348Z,99.90
